Time;durP1;ratioP1;P1;durP2;ratioP2;P2;SDS_P1;SDS_P2;PMS_P1;PMS_P2;Temp;Humidity;BMP_temperature;BMP_pressure;BME280_temperature;BME280_humidity;BME280_pressure;Samples;Min_cycle;Max_cycle;Signal;HPM_P1;HPM_P2
2023/12/30 00:00:16;;;;;;;3.10;2.90;;;;;;;9.39;100.00;96766.03;5082129;28;20225;-56
2023/12/30 00:02:42;;;;;;;2.40;2.30;;;;;;;9.40;100.00;96778.28;5083051;28;20948;-56
2023/12/30 00:05:09;;;;;;;3.10;2.80;;;;;;;9.41;100.00;96769.41;5082723;28;20635;-56
2023/12/30 00:07:36;;;;;;;3.27;3.07;;;;;;;9.43;100.00;96775.38;5082748;28;20226;-56
2023/12/30 00:10:04;;;;;;;3.47;3.27;;;;;;;9.49;100.00;96767.75;5081893;28;20210;-56
2023/12/30 00:12:31;;;;;;;3.33;3.10;;;;;;;9.47;100.00;96774.16;5083157;28;20775;-56
2023/12/30 00:14:58;;;;;;;3.87;3.13;;;;;;;9.51;100.00;96770.28;5081316;28;20208;-56
2023/12/30 00:17:25;;;;;;;3.67;3.37;;;;;;;9.53;100.00;96770.97;5081842;28;20204;-56
2023/12/30 00:19:53;;;;;;;3.73;3.50;;;;;;;9.53;100.00;96773.59;5082456;28;20206;-54
2023/12/30 00:22:20;;;;;;;3.67;3.37;;;;;;;9.52;100.00;96769.31;5082640;28;20222;-56
2023/12/30 00:24:46;;;;;;;4.07;3.77;;;;;;;9.52;100.00;96771.13;5081836;28;20203;-54
2023/12/30 00:27:17;;;;;;;3.87;3.57;;;;;;;9.57;100.00;96774.19;5082447;28;20226;-55
2023/12/30 00:29:44;;;;;;;4.17;3.80;;;;;;;9.62;100.00;96775.47;5082239;28;20264;-55
2023/12/30 00:32:10;;;;;;;4.27;3.97;;;;;;;9.61;100.00;96779.06;5083033;28;20195;-55
2023/12/30 00:34:37;;;;;;;4.50;4.10;;;;;;;9.68;100.00;96777.56;5082068;28;20289;-55
2023/12/30 00:37:04;;;;;;;4.30;4.00;;;;;;;9.64;100.00;96778.78;5082676;28;20201;-56
2023/12/30 00:39:30;;;;;;;5.30;4.20;;;;;;;9.62;100.00;96783.38;5082390;28;20205;-55
2023/12/30 00:41:57;;;;;;;4.43;4.13;;;;;;;9.62;100.00;96780.75;5082465;28;20210;-55
2023/12/30 00:44:27;;;;;;;4.63;4.23;;;;;;;9.60;100.00;96779.22;5082163;28;20295;-56
2023/12/30 00:46:56;;;;;;;5.20;4.80;;;;;;;9.55;100.00;96782.25;5082460;28;20206;-55
2023/12/30 00:49:23;;;;;;;4.77;4.37;;;;;;;9.53;100.00;96788.63;5082037;28;20337;-56
2023/12/30 00:51:51;;;;;;;4.80;4.40;;;;;;;9.57;100.00;96796.13;5082077;28;20202;-56
2023/12/30 00:54:18;;;;;;;4.80;4.40;;;;;;;9.54;100.00;96790.28;5082246;28;20310;-55
2023/12/30 00:56:45;;;;;;;4.77;4.47;;;;;;;9.50;100.00;96790.56;5083078;28;20198;-55
2023/12/30 00:59:12;;;;;;;5.10;4.70;;;;;;;9.52;100.00;96787.78;5081259;28;20559;-55
2023/12/30 01:01:40;;;;;;;5.33;4.93;;;;;;;9.52;100.00;96786.97;5081449;28;20321;-56
2023/12/30 01:04:07;;;;;;;4.90;4.50;;;;;;;9.46;100.00;96788.31;5082274;28;20204;-55
2023/12/30 01:06:34;;;;;;;5.40;4.73;;;;;;;9.43;100.00;96792.06;5082199;28;20202;-55
2023/12/30 01:09:01;;;;;;;5.83;5.23;;;;;;;9.38;100.00;96793.44;5082339;28;20508;-56
2023/12/30 01:11:29;;;;;;;5.40;4.90;;;;;;;9.35;100.00;96794.50;5081920;28;20206;-55
2023/12/30 01:13:56;;;;;;;5.70;5.10;;;;;;;9.27;100.00;96789.06;5081002;28;20253;-55
2023/12/30 01:16:22;;;;;;;5.50;5.00;;;;;;;9.23;100.00;96797.38;5081959;28;20202;-55
2023/12/30 01:18:50;;;;;;;5.47;4.97;;;;;;;9.17;100.00;96793.47;5081358;28;20336;-56
2023/12/30 01:21:18;;;;;;;5.90;5.23;;;;;;;9.14;100.00;96801.63;5081828;28;20197;-55
2023/12/30 01:23:45;;;;;;;6.27;5.73;;;;;;;9.23;100.00;96814.03;5081600;28;20194;-56
2023/12/30 01:26:11;;;;;;;5.87;5.37;;;;;;;9.21;100.00;96809.88;5081826;28;20201;-56
2023/12/30 01:28:38;;;;;;;5.90;5.40;;;;;;;9.16;100.00;96806.78;5084901;28;20225;-56
2023/12/30 01:31:05;;;;;;;6.77;5.23;;;;;;;9.22;100.00;96806.25;5086078;28;20269;-56
2023/12/30 01:33:31;;;;;;;5.83;5.33;;;;;;;9.17;100.00;96811.94;5085136;28;20209;-57
2023/12/30 01:36:00;;;;;;;6.17;5.67;;;;;;;9.13;100.00;96801.75;5086081;28;20294;-56
2023/12/30 01:38:26;;;;;;;5.80;5.30;;;;;;;9.07;100.00;96797.03;5085659;28;20228;-56
2023/12/30 01:40:55;;;;;;;6.20;5.60;;;;;;;9.06;100.00;96808.53;5084706;28;20218;-56
2023/12/30 01:43:27;;;;;;;6.10;5.60;;;;;;;9.05;100.00;96814.75;5084991;28;20711;-56
2023/12/30 01:45:54;;;;;;;5.93;5.10;;;;;;;9.02;100.00;96821.16;5085528;28;20201;-56
2023/12/30 01:48:21;;;;;;;5.83;5.33;;;;;;;8.99;100.00;96827.53;5085522;28;20701;-56
2023/12/30 01:50:48;;;;;;;5.87;5.33;;;;;;;8.96;100.00;96829.59;5085235;28;20191;-55
2023/12/30 01:53:18;;;;;;;5.60;5.10;;;;;;;8.92;100.00;96823.72;5085189;28;20353;-56
2023/12/30 01:55:44;;;;;;;5.17;4.70;;;;;;;8.88;100.00;96824.94;5084150;28;20201;-56
2023/12/30 01:58:12;;;;;;;5.87;5.37;;;;;;;8.85;100.00;96846.31;5085104;28;20186;-55
2023/12/30 02:00:39;;;;;;;6.60;5.80;;;;;;;8.82;100.00;96838.63;5091155;28;20218;-54
2023/12/30 02:03:06;;;;;;;6.30;5.70;;;;;;;8.76;100.00;96839.13;5099045;28;20269;-55
2023/12/30 02:05:33;;;;;;;6.07;5.57;;;;;;;8.66;100.00;96830.31;5087727;28;20194;-56
2023/12/30 02:07:59;;;;;;;7.63;5.80;;;;;;;8.71;100.00;96836.06;5085496;28;20215;-56
2023/12/30 02:10:27;;;;;;;6.47;5.97;;;;;;;8.73;100.00;96842.03;5085225;28;20332;-55
2023/12/30 02:12:54;;;;;;;6.70;6.10;;;;;;;8.76;100.00;96847.03;5085384;28;20216;-55
2023/12/30 02:15:22;;;;;;;6.80;5.83;;;;;;;8.74;100.00;96846.34;5084896;28;20294;-55
2023/12/30 02:17:54;;;;;;;6.27;5.67;;;;;;;8.73;100.00;96842.03;5085746;28;20209;-56
2023/12/30 02:20:21;;;;;;;6.27;5.67;;;;;;;8.72;100.00;96848.25;5085786;28;20504;-56
2023/12/30 02:22:51;;;;;;;6.30;5.67;;;;;;;8.72;100.00;96845.63;5084886;28;20209;-56
2023/12/30 02:25:18;;;;;;;6.53;5.93;;;;;;;8.71;100.00;96838.69;5085210;28;20206;-56
2023/12/30 02:27:45;;;;;;;5.73;5.23;;;;;;;8.69;100.00;96835.31;5084912;28;20678;-55
2023/12/30 02:30:13;;;;;;;6.30;5.70;;;;;;;8.73;100.00;96842.03;5083274;28;20611;-55
2023/12/30 02:32:39;;;;;;;5.90;5.50;;;;;;;8.83;100.00;96837.66;5084430;28;20208;-56
2023/12/30 02:35:06;;;;;;;6.13;5.63;;;;;;;8.80;100.00;96843.19;5084464;28;20635;-55
2023/12/30 02:37:33;;;;;;;6.07;5.40;;;;;;;8.77;100.00;96853.16;5084788;28;20190;-56
2023/12/30 02:40:04;;;;;;;6.47;5.80;;;;;;;8.74;100.00;96848.97;5084299;28;20290;-56
2023/12/30 02:42:31;;;;;;;6.07;5.47;;;;;;;8.82;100.00;96856.25;5084425;28;20213;-56
2023/12/30 02:44:58;;;;;;;5.87;5.37;;;;;;;8.74;100.00;96864.81;5084335;28;20209;-56
2023/12/30 02:47:24;;;;;;;5.60;5.10;;;;;;;8.74;100.00;96851.63;5084094;28;20221;-56
2023/12/30 02:49:51;;;;;;;5.70;5.20;;;;;;;8.68;100.00;96854.75;5084329;28;20202;-54
2023/12/30 02:52:17;;;;;;;5.47;5.07;;;;;;;8.64;100.00;96853.34;5084096;28;20285;-56
2023/12/30 02:54:44;;;;;;;5.83;5.33;;;;;;;8.68;100.00;96857.38;5083986;28;20274;-56
2023/12/30 02:57:14;;;;;;;5.70;5.20;;;;;;;8.61;100.00;96861.47;5084115;28;20202;-55
2023/12/30 02:59:41;;;;;;;5.37;4.97;;;;;;;8.64;100.00;96858.63;5083875;28;20216;-55
2023/12/30 03:02:07;;;;;;;6.07;5.47;;;;;;;8.59;100.00;96858.16;5084131;28;20244;-55
2023/12/30 03:04:34;;;;;;;5.20;4.70;;;;;;;8.56;100.00;96855.75;5084016;28;20202;-55
2023/12/30 03:07:01;;;;;;;5.63;5.13;;;;;;;8.56;100.00;96855.75;5083415;28;20300;-56
2023/12/30 03:09:28;;;;;;;5.03;4.63;;;;;;;8.52;100.00;96849.06;5084343;28;20202;-54
2023/12/30 03:11:55;;;;;;;5.10;4.53;;;;;;;8.47;100.00;96856.50;5083831;28;20205;-56
2023/12/30 03:14:26;;;;;;;4.67;4.27;;;;;;;8.50;100.00;96857.09;5083857;28;20201;-56
2023/12/30 03:16:52;;;;;;;5.00;4.60;;;;;;;8.45;100.00;96861.06;5083969;28;20190;-55
2023/12/30 03:19:19;;;;;;;5.20;4.80;;;;;;;8.41;100.00;96851.72;5083860;28;20209;-56
2023/12/30 03:21:45;;;;;;;4.80;4.40;;;;;;;8.41;100.00;96847.31;5083295;28;20202;-55
2023/12/30 03:24:12;;;;;;;5.07;4.67;;;;;;;8.36;100.00;96853.91;5083535;28;20206;-55
2023/12/30 03:26:39;;;;;;;5.17;4.67;;;;;;;8.30;100.00;96839.44;5083722;28;20201;-55
2023/12/30 03:29:06;;;;;;;4.87;4.40;;;;;;;8.21;100.00;96839.31;5082954;28;20523;-55
2023/12/30 03:31:33;;;;;;;5.43;4.93;;;;;;;8.11;100.00;96838.38;5083524;28;20213;-56
2023/12/30 03:34:00;;;;;;;4.80;4.40;;;;;;;7.94;100.00;96840.56;5083554;28;20220;-57
2023/12/30 03:36:28;;;;;;;4.63;4.23;;;;;;;7.77;100.00;96835.78;5082903;28;20638;-56
2023/12/30 03:38:55;;;;;;;4.60;4.20;;;;;;;7.63;100.00;96833.41;5083498;28;20315;-53
2023/12/30 03:41:21;;;;;;;4.60;4.20;;;;;;;7.58;100.00;96830.28;5082644;28;20204;-56
2023/12/30 03:43:48;;;;;;;4.20;3.90;;;;;;;7.50;100.00;96827.44;5083300;28;20585;-54
2023/12/30 03:46:15;;;;;;;4.57;4.17;;;;;;;7.52;100.00;96825.50;5084279;28;20275;-56
2023/12/30 03:48:43;;;;;;;4.70;4.20;;;;;;;7.44;100.00;96822.63;5089269;28;20225;-56
2023/12/30 03:51:09;;;;;;;4.47;4.07;;;;;;;7.29;100.00;96821.22;5087651;28;20198;-56
2023/12/30 03:53:36;;;;;;;4.40;3.93;;;;;;;7.26;100.00;96824.09;5087126;28;20318;-55
2023/12/30 03:56:02;;;;;;;4.10;3.80;;;;;;;7.19;100.00;96821.06;5085453;28;20205;-55
2023/12/30 03:58:29;;;;;;;4.13;3.73;;;;;;;7.16;100.00;96828.34;5085556;28;20278;-54
2023/12/30 04:00:56;;;;;;;3.87;3.57;;;;;;;7.11;100.00;96825.25;5082397;28;20359;-56
2023/12/30 04:03:22;;;;;;;4.57;3.70;;;;;;;7.06;100.00;96824.75;5082540;28;20213;-55
2023/12/30 04:05:50;;;;;;;3.70;3.40;;;;;;;7.00;100.00;96821.66;5081642;28;20215;-56
2023/12/30 04:08:17;;;;;;;3.50;3.30;;;;;;;7.06;100.00;96822.13;5082747;28;20325;-55
2023/12/30 04:10:44;;;;;;;3.43;2.97;;;;;;;7.01;100.00;96820.69;5085606;28;20970;-56
2023/12/30 04:13:11;;;;;;;3.23;3.03;;;;;;;7.03;100.00;96825.00;5091994;28;20257;-55
2023/12/30 04:15:38;;;;;;;3.47;2.77;;;;;;;7.04;100.00;96822.25;5090022;28;20225;-54
2023/12/30 04:18:06;;;;;;;3.00;2.80;;;;;;;7.04;100.00;96830.16;5083244;28;20682;-57
2023/12/30 04:20:32;;;;;;;2.97;2.77;;;;;;;7.07;100.00;96829.06;5082730;28;20206;-55
2023/12/30 04:23:00;;;;;;;2.80;2.53;;;;;;;7.09;100.00;96827.13;5082005;28;20198;-56
2023/12/30 04:25:27;;;;;;;2.90;2.60;;;;;;;7.11;100.00;96830.50;5082153;28;20553;-56
2023/12/30 04:27:53;;;;;;;3.13;2.93;;;;;;;7.07;100.00;96840.44;5082247;28;20508;-54
2023/12/30 04:30:20;;;;;;;2.30;2.10;;;;;;;7.07;100.00;96837.78;5081736;28;20229;-56
2023/12/30 04:32:47;;;;;;;2.37;2.27;;;;;;;7.04;100.00;96839.81;5082598;28;20202;-54
2023/12/30 04:35:13;;;;;;;2.70;2.50;;;;;;;6.99;100.00;96848.88;5083409;28;20197;-56
2023/12/30 04:37:40;;;;;;;2.63;2.43;;;;;;;6.95;100.00;96842.19;5082262;28;20285;-56
2023/12/30 04:40:08;;;;;;;2.20;2.10;;;;;;;6.93;100.00;96841.47;5082959;28;20194;-55
2023/12/30 04:42:35;;;;;;;2.80;2.60;;;;;;;6.88;100.00;96835.72;5082484;28;20626;-56
2023/12/30 04:45:01;;;;;;;2.53;2.37;;;;;;;6.87;100.00;96839.28;5084461;28;20198;-55
2023/12/30 04:47:28;;;;;;;2.60;2.40;;;;;;;6.85;100.00;96845.63;5083873;28;20216;-55
2023/12/30 04:49:54;;;;;;;2.57;2.40;;;;;;;6.77;100.00;96848.81;5084592;28;20240;-55
2023/12/30 04:52:21;;;;;;;2.37;2.17;;;;;;;6.79;100.00;96839.03;5083323;28;20194;-55
2023/12/30 04:54:48;;;;;;;2.43;2.07;;;;;;;6.80;100.00;96843.31;5084078;28;20227;-55
2023/12/30 04:57:16;;;;;;;2.50;2.30;;;;;;;6.81;100.00;96834.50;5083967;28;20286;-55
2023/12/30 04:59:43;;;;;;;2.73;1.93;;;;;;;6.73;100.00;96836.84;5083294;28;20200;-55
2023/12/30 05:02:09;;;;;;;2.13;2.03;;;;;;;6.64;100.00;96837.56;5083265;28;20568;-55
2023/12/30 05:04:36;;;;;;;2.03;1.93;;;;;;;6.58;100.00;96839.81;5083278;28;20670;-55
2023/12/30 05:07:03;;;;;;;2.27;2.07;;;;;;;6.53;100.00;96839.28;5082394;28;20371;-56
2023/12/30 05:09:30;;;;;;;3.60;2.37;;;;;;;6.47;100.00;96838.81;5080699;28;20226;-56
2023/12/30 05:11:56;;;;;;;2.23;2.13;;;;;;;6.36;100.00;96837.91;5081727;28;20204;-56
2023/12/30 05:14:25;;;;;;;2.47;2.23;;;;;;;6.43;100.00;96842.63;5081392;28;20233;-55
2023/12/30 05:16:51;;;;;;;2.33;1.60;;;;;;;6.45;100.00;96839.84;5081838;28;20216;-56
2023/12/30 05:19:18;;;;;;;2.30;2.10;;;;;;;6.43;100.00;96841.78;5081893;28;20194;-56
2023/12/30 05:21:45;;;;;;;2.77;1.93;;;;;;;6.34;100.00;96847.72;5081737;28;20202;-56
2023/12/30 05:24:11;;;;;;;3.13;2.30;;;;;;;6.32;100.00;96857.47;5082090;28;20205;-56
2023/12/30 05:26:38;;;;;;;2.50;2.17;;;;;;;6.27;100.00;96860.44;5081359;28;20198;-55
2023/12/30 05:29:04;;;;;;;1.87;1.77;;;;;;;6.26;100.00;96857.94;5081848;28;20240;-56
2023/12/30 05:31:32;;;;;;;1.70;1.60;;;;;;;6.21;100.00;96866.13;5081827;28;20515;-56
2023/12/30 05:33:59;;;;;;;2.23;1.57;;;;;;;6.17;100.00;96861.19;5082310;28;20210;-56
2023/12/30 05:36:26;;;;;;;2.77;2.07;;;;;;;6.14;100.00;96864.06;5081927;28;20412;-56
2023/12/30 05:38:53;;;;;;;4.03;1.80;;;;;;;6.11;100.00;96866.91;5082139;28;20205;-56
2023/12/30 05:41:20;;;;;;;2.10;1.90;;;;;;;6.07;100.00;96857.56;5081203;28;20197;-55
2023/12/30 05:43:46;;;;;;;1.87;1.77;;;;;;;6.05;100.00;96867.34;5081154;28;20198;-55
2023/12/30 05:46:16;;;;;;;1.60;1.57;;;;;;;6.02;100.00;96854.44;5081970;28;20210;-56
2023/12/30 05:48:45;;;;;;;1.80;1.70;;;;;;;5.95;100.00;96865.38;5081912;28;20244;-56
2023/12/30 05:51:11;;;;;;;1.97;1.77;;;;;;;5.94;100.00;96866.34;5084284;28;20191;-56
2023/12/30 05:53:39;;;;;;;1.93;1.73;;;;;;;5.93;100.00;96867.28;5082444;28;20205;-56
2023/12/30 05:56:06;;;;;;;2.13;1.93;;;;;;;5.95;100.00;96862.75;5091933;28;20273;-55
2023/12/30 05:58:34;;;;;;;1.53;1.43;;;;;;;5.96;100.00;96860.97;5094082;28;20222;-55
2023/12/30 06:01:01;;;;;;;3.33;1.87;;;;;;;5.94;100.00;96861.09;5091489;28;20249;-55
2023/12/30 06:03:27;;;;;;;2.80;1.90;;;;;;;5.91;100.00;96852.59;5092699;28;20304;-54
2023/12/30 06:05:55;;;;;;;3.40;1.87;;;;;;;5.86;100.00;96860.78;5092482;28;20269;-54
2023/12/30 06:08:22;;;;;;;1.90;1.80;;;;;;;5.85;100.00;96859.06;5092065;28;20246;-55
2023/12/30 06:10:53;;;;;;;1.73;1.63;;;;;;;5.86;100.00;96868.66;5085460;28;20639;-55
2023/12/30 06:13:20;;;;;;;1.80;1.70;;;;;;;5.88;100.00;96860.69;5081064;28;20384;-55
2023/12/30 06:15:49;;;;;;;2.17;1.97;;;;;;;5.83;100.00;96865.38;5084963;28;20285;-55
2023/12/30 06:18:16;;;;;;;2.20;1.97;;;;;;;5.85;100.00;96861.69;5083794;28;20194;-55
2023/12/30 06:20:44;;;;;;;2.47;2.27;;;;;;;5.83;100.00;96857.50;5091745;28;20202;-56
2023/12/30 06:23:12;;;;;;;2.17;2.07;;;;;;;5.94;100.00;96858.47;5102968;28;20225;-55
2023/12/30 06:25:39;;;;;;;2.57;2.20;;;;;;;6.19;100.00;96847.03;5089309;28;20202;-55
2023/12/30 06:28:06;;;;;;;2.30;2.00;;;;;;;6.36;100.00;96844.00;5084406;28;20591;-56
2023/12/30 06:30:34;;;;;;;3.50;2.50;;;;;;;6.53;100.00;96848.03;5085102;28;20642;-55
2023/12/30 06:33:06;;;;;;;3.60;2.50;;;;;;;6.52;100.00;96851.59;5084199;28;20862;-55
2023/12/30 06:35:33;;;;;;;2.10;1.83;;;;;;;6.61;100.00;96857.97;5084750;28;20221;-56
2023/12/30 06:38:00;;;;;;;2.10;2.00;;;;;;;6.58;100.00;96848.53;5084831;28;20203;-56
2023/12/30 06:40:28;;;;;;;1.90;1.80;;;;;;;6.56;100.00;96857.47;5084353;28;20202;-56
2023/12/30 06:42:55;;;;;;;1.73;1.63;;;;;;;6.49;100.00;96867.59;5084256;28;20217;-56
2023/12/30 06:45:22;;;;;;;1.97;1.87;;;;;;;6.42;100.00;96863.72;5084746;28;20297;-56
2023/12/30 06:47:49;;;;;;;2.10;2.00;;;;;;;6.36;100.00;96865.03;5084829;28;20250;-56
2023/12/30 06:50:15;;;;;;;2.33;2.13;;;;;;;6.30;100.00;96856.75;5084178;28;20236;-54
2023/12/30 06:52:42;;;;;;;2.30;2.20;;;;;;;6.27;100.00;96865.69;5084030;28;20195;-55
2023/12/30 06:55:11;;;;;;;2.13;1.77;;;;;;;6.27;100.00;96876.19;5084416;28;20216;-56
2023/12/30 06:57:40;;;;;;;3.73;1.90;;;;;;;6.22;100.00;96869.59;5084212;28;20623;-54
2023/12/30 07:00:09;;;;;;;1.87;1.60;;;;;;;6.18;100.00;96876.00;5083948;28;20643;-55
2023/12/30 07:02:35;;;;;;;2.47;2.10;;;;;;;6.09;100.00;96871.44;5084154;28;20225;-56
2023/12/30 07:05:02;;;;;;;1.87;1.77;;;;;;;6.04;100.00;96869.13;5084206;28;20206;-56
2023/12/30 07:07:29;;;;;;;1.83;1.70;;;;;;;6.02;100.00;96876.28;5083751;28;20205;-56
2023/12/30 07:09:55;;;;;;;2.13;1.93;;;;;;;6.05;100.00;96869.97;5083987;28;20312;-56
2023/12/30 07:12:22;;;;;;;2.97;1.87;;;;;;;6.07;100.00;96881.19;5082642;28;20278;-55
2023/12/30 07:14:50;;;;;;;2.03;1.93;;;;;;;6.01;100.00;96879.88;5083827;28;20216;-54
2023/12/30 07:17:17;;;;;;;1.77;1.67;;;;;;;5.96;100.00;96877.56;5084141;28;20199;-55
2023/12/30 07:19:43;;;;;;;3.27;1.80;;;;;;;5.91;100.00;96879.69;5083449;28;21373;-56
2023/12/30 07:22:10;;;;;;;1.90;1.80;;;;;;;5.90;100.00;96885.03;5083694;28;20316;-55
2023/12/30 07:24:37;;;;;;;1.67;1.57;;;;;;;5.91;100.00;96879.69;5083441;28;20206;-56
2023/12/30 07:27:05;;;;;;;1.70;1.60;;;;;;;5.92;100.00;96883.97;5083979;28;20203;-56
2023/12/30 07:29:33;;;;;;;1.67;1.57;;;;;;;5.98;100.00;96880.94;5083176;28;20226;-57
2023/12/30 07:32:01;;;;;;;1.90;1.80;;;;;;;6.00;100.00;96884.28;5083760;28;20199;-56
2023/12/30 07:34:28;;;;;;;3.50;1.73;;;;;;;6.05;100.00;96886.56;5083206;28;20206;-56
2023/12/30 07:36:56;;;;;;;2.33;1.83;;;;;;;6.09;100.00;96888.03;5083504;28;20225;-56
2023/12/30 07:39:23;;;;;;;1.97;1.73;;;;;;;6.07;100.00;96889.91;5083205;28;20634;-55
2023/12/30 07:41:50;;;;;;;1.70;1.60;;;;;;;6.06;100.00;96892.66;5083865;28;20203;-56
2023/12/30 07:44:17;;;;;;;1.70;1.60;;;;;;;6.05;100.00;96890.97;5083611;28;20202;-55
2023/12/30 07:46:44;;;;;;;2.03;1.93;;;;;;;6.06;100.00;96893.47;5083534;28;20297;-55
2023/12/30 07:49:17;;;;;;;1.90;1.80;;;;;;;6.07;100.00;96894.31;5092342;28;20238;-55
2023/12/30 07:51:47;;;;;;;2.03;1.60;;;;;;;6.03;100.00;96892.84;5094705;28;20210;-56
2023/12/30 07:54:13;;;;;;;1.70;1.60;;;;;;;6.02;100.00;96896.47;5094530;28;20198;-55
2023/12/30 07:56:40;;;;;;;1.80;1.70;;;;;;;6.07;100.00;96896.94;5095792;28;20547;-55
2023/12/30 07:59:07;;;;;;;1.70;1.60;;;;;;;6.09;100.00;96897.69;5087906;28;20201;-54
2023/12/30 08:01:34;;;;;;;2.70;1.70;;;;;;;6.09;100.00;96900.31;5082975;28;20230;-56
2023/12/30 08:04:00;;;;;;;2.07;1.30;;;;;;;6.11;100.00;96901.88;5082657;28;20194;-56
2023/12/30 08:06:29;;;;;;;2.03;1.43;;;;;;;6.12;100.00;96906.19;5082437;28;20212;-56
2023/12/30 08:08:57;;;;;;;2.03;1.93;;;;;;;6.10;100.00;96904.59;5082540;28;20206;-56
2023/12/30 08:11:23;;;;;;;1.90;1.80;;;;;;;6.04;100.00;96894.53;5082785;28;20193;-55
2023/12/30 08:13:50;;;;;;;2.03;1.40;;;;;;;6.06;100.00;96898.72;5081754;28;20212;-56
2023/12/30 08:16:17;;;;;;;1.80;1.70;;;;;;;6.09;100.00;96901.16;5082612;28;20213;-56
2023/12/30 08:18:44;;;;;;;1.70;1.60;;;;;;;6.13;100.00;96899.16;5083811;28;20221;-55
2023/12/30 08:21:11;;;;;;;1.90;1.80;;;;;;;6.11;100.00;96901.03;5082650;28;20646;-55
2023/12/30 08:23:39;;;;;;;2.60;1.87;;;;;;;6.15;100.00;96907.75;5082898;28;20213;-55
2023/12/30 08:26:06;;;;;;;2.17;1.80;;;;;;;6.18;100.00;96903.13;5082901;28;20396;-56
2023/12/30 08:28:32;;;;;;;2.10;1.97;;;;;;;6.22;100.00;96906.38;5082663;28;20285;-55
2023/12/30 08:31:00;;;;;;;2.23;2.00;;;;;;;6.26;100.00;96905.19;5083499;28;20221;-56
2023/12/30 08:33:27;;;;;;;2.10;2.00;;;;;;;6.31;100.00;96908.31;5087392;28;20198;-55
2023/12/30 08:35:53;;;;;;;2.10;1.90;;;;;;;6.37;100.00;96903.50;5087360;28;20220;-56
2023/12/30 08:38:20;;;;;;;1.60;1.50;;;;;;;6.34;100.00;96908.13;5083769;28;20201;-56
2023/12/30 08:40:50;;;;;;;2.20;2.10;;;;;;;6.41;100.00;96909.34;5083581;28;20197;-56
2023/12/30 08:43:17;;;;;;;2.40;2.20;;;;;;;6.42;100.00;96913.63;5081806;28;20337;-56
2023/12/30 08:45:44;;;;;;;1.90;1.80;;;;;;;6.49;100.00;96907.00;5082183;28;20199;-56
2023/12/30 08:48:15;;;;;;;2.07;1.97;;;;;;;6.61;100.00;96900.84;5083130;28;20224;-56
2023/12/30 08:50:43;;;;;;;2.90;2.20;;;;;;;6.75;100.00;96905.94;5082016;28;20210;-56
2023/12/30 08:53:09;;;;;;;1.90;1.80;;;;;;;6.82;100.00;96896.63;5082417;28;20263;-57
2023/12/30 08:55:36;;;;;;;1.90;1.80;;;;;;;6.94;100.00;96900.97;5082369;28;20194;-56
2023/12/30 08:58:06;;;;;;;2.90;2.20;;;;;;;7.10;100.00;96902.47;5084619;28;20208;-56
2023/12/30 09:00:33;;;;;;;2.40;2.20;;;;;;;7.33;100.00;96898.94;5087950;28;20309;-55
2023/12/30 09:03:00;;;;;;;2.40;2.20;;;;;;;7.86;100.00;96902.69;5089088;28;20236;-56
2023/12/30 09:05:27;;;;;;;3.30;2.97;;;;;;;8.57;100.00;96894.34;5085729;28;20297;-55
2023/12/30 09:07:54;;;;;;;2.73;2.57;;;;;;;9.14;100.00;96893.97;5086274;28;20315;-56
2023/12/30 09:10:20;;;;;;;2.47;2.27;;;;;;;9.66;100.00;96900.13;5084667;28;20570;-56
2023/12/30 09:12:47;;;;;;;2.77;2.57;;;;;;;9.87;100.00;96899.13;5082512;28;20313;-54
2023/12/30 09:15:15;;;;;;;2.23;2.13;;;;;;;10.23;100.00;96899.56;5081185;28;20272;-56
2023/12/30 09:17:41;;;;;;;2.50;2.30;;;;;;;10.44;100.00;96897.69;5082814;28;20205;-55
2023/12/30 09:20:09;;;;;;;2.97;2.70;;;;;;;10.69;100.00;96902.47;5081628;28;20280;-55
2023/12/30 09:22:35;;;;;;;3.25;2.40;;;;;;;10.97;96.58;96900.81;5082049;28;20198;-55
2023/12/30 09:25:02;;;;;;;4.20;3.20;;;;;;;11.08;95.61;96899.81;5081942;28;20197;-55
2023/12/30 09:27:29;;;;;;;2.45;2.25;;;;;;;11.29;94.70;96909.28;5081758;28;20206;-56
2023/12/30 09:29:57;;;;;;;2.40;2.20;;;;;;;11.41;93.07;96909.94;5080883;28;20218;-56
2023/12/30 09:32:25;;;;;;;2.55;2.30;;;;;;;11.46;96.01;96902.44;5081941;28;20199;-56
2023/12/30 09:34:51;;;;;;;2.95;2.40;;;;;;;11.70;93.61;96916.03;5089095;28;20194;-56
2023/12/30 09:37:19;;;;;;;2.50;2.40;;;;;;;11.90;91.22;96904.44;5087195;28;20220;-56
2023/12/30 09:39:46;;;;;;;3.70;2.78;;;;;;;11.57;93.73;96904.91;5089570;28;20210;-56
2023/12/30 09:42:13;;;;;;;2.85;2.65;;;;;;;11.91;92.87;96903.47;5084907;28;20253;-55
2023/12/30 09:44:40;;;;;;;3.30;3.00;;;;;;;11.96;90.40;96906.53;5081511;28;20198;-55
2023/12/30 09:47:10;;;;;;;3.42;2.53;;;;;;;12.16;89.82;96907.25;5082254;28;20205;-55
2023/12/30 09:49:38;;;;;;;3.22;2.97;;;;;;;12.72;90.60;96907.09;5083606;28;20222;-55
2023/12/30 09:52:06;;;;;;;3.47;2.78;;;;;;;12.71;90.84;96902.78;5085823;28;20198;-55
2023/12/30 09:54:33;;;;;;;2.90;2.60;;;;;;;13.03;88.45;96898.78;5085058;28;20208;-54
2023/12/30 09:57:02;;;;;;;2.95;2.75;;;;;;;13.13;83.71;96902.22;5086216;28;20206;-56
2023/12/30 09:59:30;;;;;;;2.72;2.50;;;;;;;13.68;80.83;96903.66;5084873;28;20234;-55
2023/12/30 10:01:56;;;;;;;2.80;2.60;;;;;;;13.89;79.41;96901.47;5085351;28;20241;-57
2023/12/30 10:04:23;;;;;;;2.90;2.70;;;;;;;13.93;76.68;96899.31;5085533;28;20208;-56
2023/12/30 10:06:53;;;;;;;3.15;2.50;;;;;;;13.75;78.12;96893.22;5085236;28;20300;-55
2023/12/30 10:09:20;;;;;;;2.90;2.70;;;;;;;13.80;78.08;96881.16;5085223;28;20300;-54
2023/12/30 10:11:47;;;;;;;2.95;2.40;;;;;;;13.96;80.54;96891.03;5085501;28;20293;-56
2023/12/30 10:14:13;;;;;;;3.00;2.80;;;;;;;14.24;76.43;96889.84;5084483;28;20372;-55
2023/12/30 10:16:40;;;;;;;2.70;2.50;;;;;;;14.06;77.92;96890.94;5085307;28;20203;-57
2023/12/30 10:19:09;;;;;;;2.22;2.05;;;;;;;14.26;75.39;96893.19;5084967;28;20234;-57
2023/12/30 10:21:37;;;;;;;2.70;2.50;;;;;;;14.38;75.02;96877.81;5084439;28;20634;-55
2023/12/30 10:24:05;;;;;;;2.30;2.20;;;;;;;14.18;79.89;96877.19;5084864;28;20202;-56
2023/12/30 10:26:32;;;;;;;2.53;2.33;;;;;;;13.88;74.67;96870.56;5084776;28;20211;-56
2023/12/30 10:28:59;;;;;;;2.15;2.05;;;;;;;13.76;74.09;96863.84;5084270;28;20517;-57
2023/12/30 10:31:25;;;;;;;2.45;2.25;;;;;;;14.20;73.46;96861.06;5084673;28;20225;-56
2023/12/30 10:33:53;;;;;;;1.90;1.80;;;;;;;14.34;75.72;96863.16;5084583;28;20646;-56
2023/12/30 10:36:20;;;;;;;2.10;1.90;;;;;;;14.21;74.45;96855.59;5084491;28;20316;-56
2023/12/30 10:38:47;;;;;;;2.42;2.22;;;;;;;14.37;71.84;96855.69;5084426;28;20289;-56
2023/12/30 10:41:15;;;;;;;2.33;2.08;;;;;;;14.31;73.38;96850.97;5084232;28;20620;-55
2023/12/30 10:43:41;;;;;;;2.35;2.25;;;;;;;14.30;75.17;96840.50;5097227;28;20202;-56
2023/12/30 10:46:11;;;;;;;2.33;2.20;;;;;;;14.29;73.15;96833.50;5102609;28;20250;-56
2023/12/30 10:48:43;;;;;;;2.88;2.22;;;;;;;14.41;73.40;96835.75;5099376;28;20223;-57
2023/12/30 10:51:09;;;;;;;2.35;2.15;;;;;;;14.27;76.36;96824.84;5084358;28;20217;-56
2023/12/30 10:53:38;;;;;;;2.47;2.22;;;;;;;14.36;74.94;96829.22;5085036;28;20217;-55
2023/12/30 10:56:07;;;;;;;2.10;2.00;;;;;;;14.39;72.75;96823.59;5084920;28;20255;-55
2023/12/30 10:58:36;;;;;;;1.98;1.88;;;;;;;14.27;70.98;96819.53;5083806;28;20225;-56
2023/12/30 11:01:04;;;;;;;2.67;2.47;;;;;;;14.06;72.36;96817.31;5083159;28;20227;-56
2023/12/30 11:03:32;;;;;;;2.08;1.98;;;;;;;13.80;74.07;96814.69;5084425;28;20194;-55
2023/12/30 11:06:03;;;;;;;3.60;2.15;;;;;;;13.55;76.53;96812.06;5082789;28;20202;-56
2023/12/30 11:08:29;;;;;;;2.13;2.03;;;;;;;13.50;76.05;96811.72;5083898;28;20194;-55
2023/12/30 11:10:59;;;;;;;2.03;1.90;;;;;;;12.90;76.69;96804.44;5084366;28;20229;-56
2023/12/30 11:13:27;;;;;;;2.20;2.00;;;;;;;12.95;77.83;96796.00;5082476;28;20217;-55
2023/12/30 11:15:56;;;;;;;3.22;3.00;;;;;;;12.97;76.99;96792.19;5084033;28;20206;-56
2023/12/30 11:18:47;;;;;;;2.90;2.65;;;;;;;12.72;76.57;96790.34;5084613;28;20234;-56
2023/12/30 11:21:14;;;;;;;2.08;1.73;;;;;;;12.50;77.46;96782.84;5084010;28;20889;-57
2023/12/30 11:23:40;;;;;;;4.22;1.90;;;;;;;12.44;82.08;96783.44;5083987;28;20216;-56
2023/12/30 11:26:13;;;;;;;5.78;4.75;;;;;;;12.44;82.65;96781.63;5083851;28;20206;-56
2023/12/30 11:28:43;;;;;;;2.40;2.17;;;;;;;12.36;80.89;96781.53;5083048;28;20616;-56
2023/12/30 11:31:12;;;;;;;4.85;2.15;;;;;;;12.32;81.16;96779.34;5083344;28;20224;-57
2023/12/30 11:33:39;;;;;;;2.25;1.92;;;;;;;12.16;83.34;96773.88;5083738;28;20210;-58